sensor_id;sensor_type;location;lat;lon;timestamp;P1;durP1;ratioP1;P2;durP2;ratioP2
56830;SDS011;42713;42.676;23.352;2022-08-20T00:00:13;13.00;;;4.43;;
56830;SDS011;42713;42.676;23.352;2022-08-20T00:02:46;9.30;;;4.72;;
56830;SDS011;42713;42.676;23.352;2022-08-20T00:05:19;9.82;;;4.80;;
56830;SDS011;42713;42.676;23.352;2022-08-20T00:07:46;11.30;;;6.13;;
56830;SDS011;42713;42.676;23.352;2022-08-20T00:10:12;10.93;;;4.95;;
56830;SDS011;42713;42.676;23.352;2022-08-20T00:12:37;15.60;;;5.65;;
56830;SDS011;42713;42.676;23.352;2022-08-20T00:15:09;11.30;;;5.18;;
56830;SDS011;42713;42.676;23.352;2022-08-20T00:17:37;11.65;;;4.80;;
56830;SDS011;42713;42.676;23.352;2022-08-20T00:20:07;9.82;;;4.97;;
56830;SDS011;42713;42.676;23.352;2022-08-20T00:22:35;10.55;;;5.05;;
56830;SDS011;42713;42.676;23.352;2022-08-20T00:25:01;8.27;;;5.00;;
56830;SDS011;42713;42.676;23.352;2022-08-20T00:27:29;8.48;;;4.85;;
56830;SDS011;42713;42.676;23.352;2022-08-20T00:29:55;11.70;;;5.28;;
56830;SDS011;42713;42.676;23.352;2022-08-20T00:32:20;14.05;;;5.32;;
56830;SDS011;42713;42.676;23.352;2022-08-20T00:34:46;9.02;;;4.88;;
56830;SDS011;42713;42.676;23.352;2022-08-20T00:37:12;11.40;;;5.55;;
56830;SDS011;42713;42.676;23.352;2022-08-20T00:39:37;10.13;;;5.25;;
56830;SDS011;42713;42.676;23.352;2022-08-20T00:42:03;8.85;;;4.72;;
56830;SDS011;42713;42.676;23.352;2022-08-20T00:44:29;11.23;;;4.78;;
56830;SDS011;42713;42.676;23.352;2022-08-20T00:46:54;12.45;;;5.20;;
56830;SDS011;42713;42.676;23.352;2022-08-20T00:49:24;12.10;;;5.07;;
56830;SDS011;42713;42.676;23.352;2022-08-20T00:51:53;9.45;;;5.25;;
56830;SDS011;42713;42.676;23.352;2022-08-20T00:54:40;11.13;;;5.15;;
56830;SDS011;42713;42.676;23.352;2022-08-20T00:57:11;10.77;;;5.35;;
56830;SDS011;42713;42.676;23.352;2022-08-20T00:59:54;9.43;;;4.80;;
56830;SDS011;42713;42.676;23.352;2022-08-20T01:02:22;10.43;;;5.07;;
56830;SDS011;42713;42.676;23.352;2022-08-20T01:04:51;10.50;;;5.35;;
56830;SDS011;42713;42.676;23.352;2022-08-20T01:07:24;12.95;;;5.53;;
56830;SDS011;42713;42.676;23.352;2022-08-20T01:10:04;13.50;;;5.20;;
56830;SDS011;42713;42.676;23.352;2022-08-20T01:12:32;11.27;;;5.38;;
56830;SDS011;42713;42.676;23.352;2022-08-20T01:14:59;10.98;;;5.30;;
56830;SDS011;42713;42.676;23.352;2022-08-20T01:17:27;10.30;;;5.00;;
56830;SDS011;42713;42.676;23.352;2022-08-20T01:28:15;13.25;;;5.30;;
56830;SDS011;42713;42.676;23.352;2022-08-20T01:30:43;9.95;;;5.03;;
56830;SDS011;42713;42.676;23.352;2022-08-20T01:33:09;11.23;;;4.80;;
56830;SDS011;42713;42.676;23.352;2022-08-20T01:35:36;9.05;;;4.82;;
56830;SDS011;42713;42.676;23.352;2022-08-20T01:38:04;12.23;;;5.35;;
56830;SDS011;42713;42.676;23.352;2022-08-20T01:43:40;12.52;;;5.20;;
56830;SDS011;42713;42.676;23.352;2022-08-20T01:46:07;11.43;;;5.40;;
56830;SDS011;42713;42.676;23.352;2022-08-20T01:48:34;10.20;;;5.40;;
56830;SDS011;42713;42.676;23.352;2022-08-20T01:53:30;12.98;;;5.22;;
56830;SDS011;42713;42.676;23.352;2022-08-20T01:56:03;8.73;;;5.20;;
56830;SDS011;42713;42.676;23.352;2022-08-20T01:58:33;12.60;;;5.13;;
56830;SDS011;42713;42.676;23.352;2022-08-20T02:01:02;11.75;;;6.05;;
56830;SDS011;42713;42.676;23.352;2022-08-20T02:03:28;10.85;;;5.63;;
56830;SDS011;42713;42.676;23.352;2022-08-20T02:05:54;12.45;;;5.90;;
56830;SDS011;42713;42.676;23.352;2022-08-20T02:08:20;11.35;;;5.28;;
56830;SDS011;42713;42.676;23.352;2022-08-20T02:10:46;12.30;;;5.32;;
56830;SDS011;42713;42.676;23.352;2022-08-20T02:13:12;11.68;;;5.20;;
56830;SDS011;42713;42.676;23.352;2022-08-20T02:15:38;13.13;;;5.22;;
56830;SDS011;42713;42.676;23.352;2022-08-20T02:18:05;14.88;;;5.82;;
56830;SDS011;42713;42.676;23.352;2022-08-20T02:20:34;10.00;;;5.22;;
56830;SDS011;42713;42.676;23.352;2022-08-20T02:23:01;10.68;;;5.18;;
56830;SDS011;42713;42.676;23.352;2022-08-20T02:25:28;11.48;;;5.22;;
56830;SDS011;42713;42.676;23.352;2022-08-20T02:27:58;14.48;;;5.30;;
56830;SDS011;42713;42.676;23.352;2022-08-20T02:30:30;9.70;;;5.57;;
56830;SDS011;42713;42.676;23.352;2022-08-20T02:32:59;9.90;;;5.47;;
56830;SDS011;42713;42.676;23.352;2022-08-20T02:35:27;11.65;;;5.70;;
56830;SDS011;42713;42.676;23.352;2022-08-20T02:37:54;11.50;;;5.68;;
56830;SDS011;42713;42.676;23.352;2022-08-20T02:40:20;11.68;;;5.28;;
56830;SDS011;42713;42.676;23.352;2022-08-20T02:42:49;13.10;;;5.63;;
56830;SDS011;42713;42.676;23.352;2022-08-20T02:45:15;9.90;;;5.50;;
56830;SDS011;42713;42.676;23.352;2022-08-20T02:47:42;11.88;;;6.15;;
56830;SDS011;42713;42.676;23.352;2022-08-20T02:50:10;11.70;;;5.60;;
56830;SDS011;42713;42.676;23.352;2022-08-20T02:52:38;10.52;;;5.68;;
56830;SDS011;42713;42.676;23.352;2022-08-20T02:55:04;11.15;;;5.60;;
56830;SDS011;42713;42.676;23.352;2022-08-20T02:57:29;13.57;;;5.72;;
56830;SDS011;42713;42.676;23.352;2022-08-20T02:59:56;11.43;;;5.80;;
56830;SDS011;42713;42.676;23.352;2022-08-20T03:02:21;11.35;;;5.28;;
56830;SDS011;42713;42.676;23.352;2022-08-20T03:04:47;13.68;;;5.63;;
56830;SDS011;42713;42.676;23.352;2022-08-20T03:07:13;16.20;;;5.43;;
56830;SDS011;42713;42.676;23.352;2022-08-20T03:09:39;12.80;;;5.80;;
56830;SDS011;42713;42.676;23.352;2022-08-20T03:12:05;12.68;;;5.78;;
56830;SDS011;42713;42.676;23.352;2022-08-20T03:14:32;11.25;;;6.18;;
56830;SDS011;42713;42.676;23.352;2022-08-20T03:16:58;15.65;;;6.07;;
56830;SDS011;42713;42.676;23.352;2022-08-20T03:19:24;10.20;;;5.80;;
56830;SDS011;42713;42.676;23.352;2022-08-20T03:21:49;18.40;;;7.05;;
56830;SDS011;42713;42.676;23.352;2022-08-20T03:24:15;14.40;;;5.78;;
56830;SDS011;42713;42.676;23.352;2022-08-20T03:26:40;14.38;;;5.82;;
56830;SDS011;42713;42.676;23.352;2022-08-20T03:29:06;11.52;;;5.80;;
56830;SDS011;42713;42.676;23.352;2022-08-20T03:31:32;17.63;;;6.05;;
56830;SDS011;42713;42.676;23.352;2022-08-20T03:33:57;10.60;;;5.68;;
56830;SDS011;42713;42.676;23.352;2022-08-20T03:36:24;14.27;;;6.03;;
56830;SDS011;42713;42.676;23.352;2022-08-20T03:38:50;12.38;;;5.78;;
56830;SDS011;42713;42.676;23.352;2022-08-20T03:41:15;11.88;;;6.50;;
56830;SDS011;42713;42.676;23.352;2022-08-20T03:43:41;14.52;;;5.95;;
56830;SDS011;42713;42.676;23.352;2022-08-20T03:46:07;11.88;;;6.32;;
56830;SDS011;42713;42.676;23.352;2022-08-20T03:48:33;9.82;;;6.03;;
56830;SDS011;42713;42.676;23.352;2022-08-20T03:50:58;17.42;;;9.35;;
56830;SDS011;42713;42.676;23.352;2022-08-20T03:53:25;12.93;;;6.22;;
56830;SDS011;42713;42.676;23.352;2022-08-20T03:55:56;16.52;;;6.40;;
56830;SDS011;42713;42.676;23.352;2022-08-20T03:58:25;14.10;;;6.40;;
56830;SDS011;42713;42.676;23.352;2022-08-20T04:00:54;11.05;;;6.65;;
56830;SDS011;42713;42.676;23.352;2022-08-20T04:03:20;16.75;;;6.97;;
56830;SDS011;42713;42.676;23.352;2022-08-20T04:05:47;14.23;;;6.70;;
56830;SDS011;42713;42.676;23.352;2022-08-20T04:08:17;16.17;;;7.63;;
56830;SDS011;42713;42.676;23.352;2022-08-20T04:10:46;12.13;;;6.78;;
56830;SDS011;42713;42.676;23.352;2022-08-20T04:13:13;16.58;;;6.95;;
56830;SDS011;42713;42.676;23.352;2022-08-20T04:15:40;10.57;;;5.88;;
56830;SDS011;42713;42.676;23.352;2022-08-20T04:18:06;14.77;;;6.57;;
56830;SDS011;42713;42.676;23.352;2022-08-20T04:20:33;15.98;;;6.68;;
56830;SDS011;42713;42.676;23.352;2022-08-20T04:23:01;19.52;;;6.80;;
56830;SDS011;42713;42.676;23.352;2022-08-20T04:25:28;13.35;;;6.22;;
56830;SDS011;42713;42.676;23.352;2022-08-20T04:27:56;12.85;;;6.60;;
56830;SDS011;42713;42.676;23.352;2022-08-20T04:30:22;14.00;;;6.57;;
56830;SDS011;42713;42.676;23.352;2022-08-20T04:32:48;15.60;;;7.55;;
56830;SDS011;42713;42.676;23.352;2022-08-20T04:35:14;13.80;;;6.78;;
56830;SDS011;42713;42.676;23.352;2022-08-20T04:37:43;13.15;;;7.53;;
56830;SDS011;42713;42.676;23.352;2022-08-20T04:40:12;20.17;;;9.68;;
56830;SDS011;42713;42.676;23.352;2022-08-20T04:42:59;12.30;;;7.25;;
56830;SDS011;42713;42.676;23.352;2022-08-20T04:45:25;13.57;;;7.30;;
56830;SDS011;42713;42.676;23.352;2022-08-20T04:47:51;13.60;;;7.07;;
56830;SDS011;42713;42.676;23.352;2022-08-20T04:50:17;15.13;;;6.60;;
56830;SDS011;42713;42.676;23.352;2022-08-20T04:52:43;13.07;;;7.55;;
56830;SDS011;42713;42.676;23.352;2022-08-20T04:55:09;12.82;;;7.50;;
56830;SDS011;42713;42.676;23.352;2022-08-20T04:57:35;13.63;;;6.85;;
56830;SDS011;42713;42.676;23.352;2022-08-20T05:00:06;11.68;;;6.80;;
56830;SDS011;42713;42.676;23.352;2022-08-20T05:02:34;12.98;;;6.70;;
56830;SDS011;42713;42.676;23.352;2022-08-20T05:05:02;13.55;;;6.60;;
56830;SDS011;42713;42.676;23.352;2022-08-20T05:07:28;14.63;;;7.03;;
56830;SDS011;42713;42.676;23.352;2022-08-20T05:09:54;15.85;;;6.50;;
56830;SDS011;42713;42.676;23.352;2022-08-20T05:12:20;17.63;;;6.80;;
56830;SDS011;42713;42.676;23.352;2022-08-20T05:14:45;13.55;;;6.55;;
56830;SDS011;42713;42.676;23.352;2022-08-20T05:17:11;11.70;;;6.80;;
56830;SDS011;42713;42.676;23.352;2022-08-20T05:19:40;13.68;;;7.07;;
56830;SDS011;42713;42.676;23.352;2022-08-20T05:22:06;16.50;;;6.80;;
56830;SDS011;42713;42.676;23.352;2022-08-20T05:24:32;17.33;;;9.52;;
56830;SDS011;42713;42.676;23.352;2022-08-20T05:26:58;16.30;;;7.63;;
56830;SDS011;42713;42.676;23.352;2022-08-20T05:29:25;12.80;;;6.47;;
56830;SDS011;42713;42.676;23.352;2022-08-20T05:31:52;15.60;;;6.20;;
56830;SDS011;42713;42.676;23.352;2022-08-20T05:34:19;15.63;;;6.63;;
56830;SDS011;42713;42.676;23.352;2022-08-20T05:36:45;11.93;;;6.68;;
56830;SDS011;42713;42.676;23.352;2022-08-20T05:39:13;16.58;;;6.63;;
56830;SDS011;42713;42.676;23.352;2022-08-20T05:41:39;16.63;;;6.22;;
56830;SDS011;42713;42.676;23.352;2022-08-20T05:44:06;14.15;;;6.60;;
56830;SDS011;42713;42.676;23.352;2022-08-20T05:46:35;10.33;;;6.17;;
56830;SDS011;42713;42.676;23.352;2022-08-20T05:49:05;14.10;;;6.55;;
56830;SDS011;42713;42.676;23.352;2022-08-20T05:51:32;13.75;;;6.85;;
56830;SDS011;42713;42.676;23.352;2022-08-20T05:53:58;22.85;;;7.30;;
56830;SDS011;42713;42.676;23.352;2022-08-20T05:56:23;14.93;;;7.15;;
56830;SDS011;42713;42.676;23.352;2022-08-20T05:58:49;13.52;;;7.72;;
56830;SDS011;42713;42.676;23.352;2022-08-20T06:01:14;14.48;;;8.05;;
56830;SDS011;42713;42.676;23.352;2022-08-20T06:03:40;14.93;;;6.50;;
56830;SDS011;42713;42.676;23.352;2022-08-20T06:06:24;12.82;;;7.28;;
56830;SDS011;42713;42.676;23.352;2022-08-20T06:08:49;17.58;;;7.07;;
56830;SDS011;42713;42.676;23.352;2022-08-20T06:11:14;18.33;;;7.35;;
56830;SDS011;42713;42.676;23.352;2022-08-20T06:13:40;18.70;;;7.30;;
56830;SDS011;42713;42.676;23.352;2022-08-20T06:16:05;15.63;;;7.35;;
56830;SDS011;42713;42.676;23.352;2022-08-20T06:18:31;13.38;;;7.10;;
56830;SDS011;42713;42.676;23.352;2022-08-20T06:20:56;11.98;;;7.53;;
56830;SDS011;42713;42.676;23.352;2022-08-20T06:23:22;19.33;;;6.78;;
56830;SDS011;42713;42.676;23.352;2022-08-20T06:25:49;16.27;;;6.53;;
56830;SDS011;42713;42.676;23.352;2022-08-20T06:28:15;17.75;;;6.97;;
56830;SDS011;42713;42.676;23.352;2022-08-20T06:30:42;12.00;;;6.72;;
56830;SDS011;42713;42.676;23.352;2022-08-20T06:33:08;13.88;;;7.47;;
56830;SDS011;42713;42.676;23.352;2022-08-20T06:35:34;15.95;;;7.05;;
56830;SDS011;42713;42.676;23.352;2022-08-20T06:38:02;14.63;;;7.22;;
56830;SDS011;42713;42.676;23.352;2022-08-20T06:40:29;16.73;;;6.88;;
56830;SDS011;42713;42.676;23.352;2022-08-20T06:42:55;15.68;;;7.25;;
56830;SDS011;42713;42.676;23.352;2022-08-20T06:45:22;18.52;;;8.30;;
56830;SDS011;42713;42.676;23.352;2022-08-20T06:47:50;13.60;;;7.13;;
56830;SDS011;42713;42.676;23.352;2022-08-20T06:50:23;14.25;;;7.00;;
56830;SDS011;42713;42.676;23.352;2022-08-20T06:52:57;15.18;;;7.10;;
56830;SDS011;42713;42.676;23.352;2022-08-20T06:55:24;13.15;;;7.00;;
56830;SDS011;42713;42.676;23.352;2022-08-20T06:57:56;14.82;;;6.97;;
56830;SDS011;42713;42.676;23.352;2022-08-20T07:00:24;15.25;;;7.07;;
56830;SDS011;42713;42.676;23.352;2022-08-20T07:02:50;16.10;;;7.20;;
56830;SDS011;42713;42.676;23.352;2022-08-20T07:05:15;15.02;;;7.10;;
56830;SDS011;42713;42.676;23.352;2022-08-20T07:07:45;16.65;;;6.97;;
56830;SDS011;42713;42.676;23.352;2022-08-20T07:10:13;11.65;;;6.95;;
56830;SDS011;42713;42.676;23.352;2022-08-20T07:12:41;22.33;;;7.47;;
56830;SDS011;42713;42.676;23.352;2022-08-20T07:15:07;20.60;;;7.25;;
56830;SDS011;42713;42.676;23.352;2022-08-20T07:17:37;16.73;;;7.72;;
56830;SDS011;42713;42.676;23.352;2022-08-20T07:20:08;14.15;;;7.07;;
56830;SDS011;42713;42.676;23.352;2022-08-20T07:22:35;17.98;;;6.82;;
56830;SDS011;42713;42.676;23.352;2022-08-20T07:25:05;15.77;;;7.50;;
56830;SDS011;42713;42.676;23.352;2022-08-20T07:27:33;17.23;;;8.30;;
56830;SDS011;42713;42.676;23.352;2022-08-20T07:29:59;17.02;;;7.80;;
56830;SDS011;42713;42.676;23.352;2022-08-20T07:32:43;16.50;;;6.93;;
56830;SDS011;42713;42.676;23.352;2022-08-20T07:35:10;18.02;;;6.97;;
56830;SDS011;42713;42.676;23.352;2022-08-20T07:37:39;14.27;;;6.97;;
56830;SDS011;42713;42.676;23.352;2022-08-20T07:40:07;17.80;;;7.03;;
56830;SDS011;42713;42.676;23.352;2022-08-20T07:42:36;14.88;;;6.72;;
56830;SDS011;42713;42.676;23.352;2022-08-20T07:45:03;12.85;;;6.97;;
56830;SDS011;42713;42.676;23.352;2022-08-20T07:47:35;11.40;;;6.40;;
56830;SDS011;42713;42.676;23.352;2022-08-20T07:50:01;16.70;;;7.50;;
56830;SDS011;42713;42.676;23.352;2022-08-20T07:52:28;12.00;;;6.80;;
56830;SDS011;42713;42.676;23.352;2022-08-20T07:54:53;17.73;;;7.05;;
56830;SDS011;42713;42.676;23.352;2022-08-20T07:57:19;14.30;;;7.18;;
56830;SDS011;42713;42.676;23.352;2022-08-20T07:59:44;13.75;;;6.90;;
56830;SDS011;42713;42.676;23.352;2022-08-20T08:02:10;14.23;;;6.90;;
56830;SDS011;42713;42.676;23.352;2022-08-20T08:04:43;13.80;;;7.03;;
56830;SDS011;42713;42.676;23.352;2022-08-20T08:07:09;14.13;;;7.18;;
56830;SDS011;42713;42.676;23.352;2022-08-20T08:09:35;12.10;;;7.10;;
56830;SDS011;42713;42.676;23.352;2022-08-20T08:12:01;14.30;;;7.18;;
56830;SDS011;42713;42.676;23.352;2022-08-20T08:14:28;14.88;;;7.10;;
56830;SDS011;42713;42.676;23.352;2022-08-20T08:16:59;14.93;;;6.65;;
56830;SDS011;42713;42.676;23.352;2022-08-20T08:19:28;15.43;;;6.88;;
56830;SDS011;42713;42.676;23.352;2022-08-20T08:22:00;13.00;;;6.80;;
56830;SDS011;42713;42.676;23.352;2022-08-20T08:24:26;11.77;;;6.78;;
56830;SDS011;42713;42.676;23.352;2022-08-20T08:26:51;13.88;;;6.90;;
56830;SDS011;42713;42.676;23.352;2022-08-20T08:29:17;11.73;;;6.68;;
56830;SDS011;42713;42.676;23.352;2022-08-20T08:31:42;12.02;;;7.18;;
56830;SDS011;42713;42.676;23.352;2022-08-20T08:34:08;11.50;;;6.32;;
56830;SDS011;42713;42.676;23.352;2022-08-20T08:36:34;12.65;;;6.45;;
56830;SDS011;42713;42.676;23.352;2022-08-20T08:38:59;11.55;;;6.75;;
56830;SDS011;42713;42.676;23.352;2022-08-20T08:41:36;13.75;;;6.85;;
56830;SDS011;42713;42.676;23.352;2022-08-20T08:44:13;13.88;;;6.50;;
56830;SDS011;42713;42.676;23.352;2022-08-20T08:47:00;10.40;;;6.40;;
56830;SDS011;42713;42.676;23.352;2022-08-20T08:49:32;13.82;;;6.70;;
56830;SDS011;42713;42.676;23.352;2022-08-20T08:54:26;13.98;;;7.15;;
56830;SDS011;42713;42.676;23.352;2022-08-20T08:56:53;13.55;;;6.93;;
56830;SDS011;42713;42.676;23.352;2022-08-20T08:59:19;11.88;;;6.82;;
56830;SDS011;42713;42.676;23.352;2022-08-20T09:01:48;15.35;;;6.68;;
56830;SDS011;42713;42.676;23.352;2022-08-20T09:06:43;17.02;;;6.72;;
56830;SDS011;42713;42.676;23.352;2022-08-20T09:09:12;15.32;;;6.72;;
56830;SDS011;42713;42.676;23.352;2022-08-20T09:11:48;11.82;;;6.55;;
56830;SDS011;42713;42.676;23.352;2022-08-20T09:14:20;11.23;;;6.40;;
56830;SDS011;42713;42.676;23.352;2022-08-20T09:16:48;11.73;;;6.70;;
56830;SDS011;42713;42.676;23.352;2022-08-20T09:19:14;11.95;;;6.65;;
56830;SDS011;42713;42.676;23.352;2022-08-20T09:21:40;11.27;;;6.50;;
56830;SDS011;42713;42.676;23.352;2022-08-20T09:24:06;16.92;;;6.82;;
56830;SDS011;42713;42.676;23.352;2022-08-20T09:26:31;12.65;;;6.45;;
56830;SDS011;42713;42.676;23.352;2022-08-20T09:28:57;11.52;;;6.68;;
56830;SDS011;42713;42.676;23.352;2022-08-20T09:31:22;14.52;;;6.60;;
56830;SDS011;42713;42.676;23.352;2022-08-20T09:33:48;13.23;;;6.40;;
56830;SDS011;42713;42.676;23.352;2022-08-20T09:36:15;13.18;;;7.18;;
56830;SDS011;42713;42.676;23.352;2022-08-20T09:38:40;11.23;;;6.25;;
56830;SDS011;42713;42.676;23.352;2022-08-20T09:41:06;10.55;;;6.82;;
56830;SDS011;42713;42.676;23.352;2022-08-20T09:43:31;12.10;;;6.30;;
56830;SDS011;42713;42.676;23.352;2022-08-20T09:45:57;12.18;;;6.30;;
56830;SDS011;42713;42.676;23.352;2022-08-20T09:48:22;13.45;;;6.35;;
56830;SDS011;42713;42.676;23.352;2022-08-20T09:50:48;9.63;;;5.85;;
56830;SDS011;42713;42.676;23.352;2022-08-20T09:53:14;11.35;;;6.45;;
56830;SDS011;42713;42.676;23.352;2022-08-20T09:55:44;13.65;;;6.40;;
56830;SDS011;42713;42.676;23.352;2022-08-20T09:58:21;9.45;;;6.10;;
56830;SDS011;42713;42.676;23.352;2022-08-20T10:00:51;14.27;;;6.75;;
56830;SDS011;42713;42.676;23.352;2022-08-20T10:03:17;13.85;;;6.78;;
56830;SDS011;42713;42.676;23.352;2022-08-20T10:05:43;15.05;;;6.10;;
56830;SDS011;42713;42.676;23.352;2022-08-20T10:08:09;11.07;;;6.10;;
56830;SDS011;42713;42.676;23.352;2022-08-20T10:10:36;12.38;;;6.20;;
56830;SDS011;42713;42.676;23.352;2022-08-20T10:13:01;15.02;;;6.38;;
56830;SDS011;42713;42.676;23.352;2022-08-20T10:15:28;12.27;;;7.03;;
56830;SDS011;42713;42.676;23.352;2022-08-20T10:17:54;13.90;;;6.28;;
56830;SDS011;42713;42.676;23.352;2022-08-20T10:20:21;14.68;;;6.38;;
56830;SDS011;42713;42.676;23.352;2022-08-20T10:22:49;11.30;;;6.93;;
56830;SDS011;42713;42.676;23.352;2022-08-20T10:25:15;15.30;;;7.07;;
56830;SDS011;42713;42.676;23.352;2022-08-20T10:27:41;10.93;;;6.43;;
56830;SDS011;42713;42.676;23.352;2022-08-20T10:30:08;13.73;;;6.63;;
56830;SDS011;42713;42.676;23.352;2022-08-20T10:32:34;10.35;;;6.65;;
56830;SDS011;42713;42.676;23.352;2022-08-20T10:35:00;11.73;;;6.45;;
56830;SDS011;42713;42.676;23.352;2022-08-20T10:37:27;9.52;;;6.53;;
56830;SDS011;42713;42.676;23.352;2022-08-20T10:39:53;13.85;;;6.40;;
56830;SDS011;42713;42.676;23.352;2022-08-20T10:42:19;13.70;;;6.10;;
56830;SDS011;42713;42.676;23.352;2022-08-20T10:44:45;11.57;;;6.47;;
56830;SDS011;42713;42.676;23.352;2022-08-20T10:49:43;10.43;;;6.28;;
56830;SDS011;42713;42.676;23.352;2022-08-20T10:52:08;14.95;;;6.30;;
56830;SDS011;42713;42.676;23.352;2022-08-20T10:54:34;10.35;;;6.18;;
56830;SDS011;42713;42.676;23.352;2022-08-20T10:57:00;13.65;;;6.30;;
56830;SDS011;42713;42.676;23.352;2022-08-20T10:59:27;11.13;;;6.28;;
56830;SDS011;42713;42.676;23.352;2022-08-20T11:01:53;12.18;;;6.28;;
56830;SDS011;42713;42.676;23.352;2022-08-20T11:04:18;9.52;;;6.13;;
56830;SDS011;42713;42.676;23.352;2022-08-20T11:06:44;10.68;;;6.18;;
56830;SDS011;42713;42.676;23.352;2022-08-20T11:09:09;12.90;;;6.13;;
56830;SDS011;42713;42.676;23.352;2022-08-20T11:11:35;11.45;;;6.47;;
56830;SDS011;42713;42.676;23.352;2022-08-20T11:14:00;10.23;;;5.57;;
56830;SDS011;42713;42.676;23.352;2022-08-20T11:16:26;13.52;;;5.97;;
56830;SDS011;42713;42.676;23.352;2022-08-20T11:18:51;11.48;;;6.30;;
56830;SDS011;42713;42.676;23.352;2022-08-20T11:21:17;15.80;;;6.20;;
56830;SDS011;42713;42.676;23.352;2022-08-20T11:23:42;12.80;;;6.63;;
56830;SDS011;42713;42.676;23.352;2022-08-20T11:26:08;12.07;;;6.25;;
56830;SDS011;42713;42.676;23.352;2022-08-20T11:28:34;10.25;;;6.13;;
56830;SDS011;42713;42.676;23.352;2022-08-20T11:31:00;13.55;;;6.53;;
56830;SDS011;42713;42.676;23.352;2022-08-20T11:33:25;11.18;;;6.72;;
56830;SDS011;42713;42.676;23.352;2022-08-20T11:35:51;13.60;;;6.45;;
56830;SDS011;42713;42.676;23.352;2022-08-20T11:38:17;10.75;;;6.72;;
56830;SDS011;42713;42.676;23.352;2022-08-20T11:40:42;13.10;;;6.30;;
56830;SDS011;42713;42.676;23.352;2022-08-20T11:43:08;11.98;;;6.40;;
56830;SDS011;42713;42.676;23.352;2022-08-20T11:45:34;10.15;;;6.30;;
56830;SDS011;42713;42.676;23.352;2022-08-20T11:47:59;12.98;;;6.13;;
56830;SDS011;42713;42.676;23.352;2022-08-20T11:50:25;12.82;;;6.00;;
56830;SDS011;42713;42.676;23.352;2022-08-20T11:52:50;10.50;;;6.28;;
56830;SDS011;42713;42.676;23.352;2022-08-20T11:55:16;9.80;;;6.03;;
56830;SDS011;42713;42.676;23.352;2022-08-20T11:57:42;14.15;;;6.40;;
56830;SDS011;42713;42.676;23.352;2022-08-20T12:00:12;9.45;;;6.15;;
56830;SDS011;42713;42.676;23.352;2022-08-20T12:02:41;12.57;;;6.30;;
56830;SDS011;42713;42.676;23.352;2022-08-20T12:05:07;10.52;;;6.20;;
56830;SDS011;42713;42.676;23.352;2022-08-20T12:07:34;10.25;;;6.22;;
56830;SDS011;42713;42.676;23.352;2022-08-20T12:09:59;12.63;;;6.38;;
56830;SDS011;42713;42.676;23.352;2022-08-20T12:12:25;10.80;;;5.93;;
56830;SDS011;42713;42.676;23.352;2022-08-20T12:14:51;9.18;;;5.53;;
56830;SDS011;42713;42.676;23.352;2022-08-20T12:17:19;14.05;;;6.20;;
56830;SDS011;42713;42.676;23.352;2022-08-20T12:19:48;18.15;;;6.20;;
56830;SDS011;42713;42.676;23.352;2022-08-20T12:22:14;9.82;;;5.38;;
56830;SDS011;42713;42.676;23.352;2022-08-20T12:24:40;10.43;;;5.72;;
56830;SDS011;42713;42.676;23.352;2022-08-20T12:27:16;14.00;;;6.10;;
56830;SDS011;42713;42.676;23.352;2022-08-20T12:29:43;11.68;;;6.15;;
56830;SDS011;42713;42.676;23.352;2022-08-20T12:32:10;11.32;;;5.45;;
56830;SDS011;42713;42.676;23.352;2022-08-20T12:34:37;11.95;;;6.05;;
56830;SDS011;42713;42.676;23.352;2022-08-20T12:37:07;12.75;;;6.68;;
56830;SDS011;42713;42.676;23.352;2022-08-20T12:39:40;19.25;;;7.85;;
56830;SDS011;42713;42.676;23.352;2022-08-20T12:42:07;19.10;;;8.60;;
56830;SDS011;42713;42.676;23.352;2022-08-20T12:44:35;15.10;;;7.30;;
56830;SDS011;42713;42.676;23.352;2022-08-20T12:47:08;20.65;;;9.20;;
56830;SDS011;42713;42.676;23.352;2022-08-20T12:49:34;20.63;;;10.13;;
56830;SDS011;42713;42.676;23.352;2022-08-20T12:51:59;18.40;;;9.00;;
56830;SDS011;42713;42.676;23.352;2022-08-20T12:54:25;20.95;;;9.30;;
56830;SDS011;42713;42.676;23.352;2022-08-20T12:56:51;18.67;;;9.50;;
56830;SDS011;42713;42.676;23.352;2022-08-20T12:59:17;21.42;;;10.30;;
56830;SDS011;42713;42.676;23.352;2022-08-20T13:01:42;20.42;;;11.30;;
56830;SDS011;42713;42.676;23.352;2022-08-20T13:04:08;19.60;;;11.20;;
56830;SDS011;42713;42.676;23.352;2022-08-20T13:06:34;21.45;;;11.25;;
56830;SDS011;42713;42.676;23.352;2022-08-20T13:09:00;20.65;;;11.27;;
56830;SDS011;42713;42.676;23.352;2022-08-20T13:11:25;18.70;;;10.93;;
56830;SDS011;42713;42.676;23.352;2022-08-20T13:13:51;17.38;;;10.80;;
56830;SDS011;42713;42.676;23.352;2022-08-20T13:16:16;24.40;;;11.02;;
56830;SDS011;42713;42.676;23.352;2022-08-20T13:18:42;18.60;;;10.50;;
56830;SDS011;42713;42.676;23.352;2022-08-20T13:21:07;23.40;;;10.38;;
56830;SDS011;42713;42.676;23.352;2022-08-20T13:23:33;22.20;;;10.85;;
56830;SDS011;42713;42.676;23.352;2022-08-20T13:25:58;26.67;;;11.43;;
56830;SDS011;42713;42.676;23.352;2022-08-20T13:28:24;17.98;;;9.80;;
56830;SDS011;42713;42.676;23.352;2022-08-20T13:30:49;22.02;;;9.43;;
56830;SDS011;42713;42.676;23.352;2022-08-20T13:33:15;19.38;;;9.52;;
56830;SDS011;42713;42.676;23.352;2022-08-20T13:35:40;23.52;;;9.77;;
56830;SDS011;42713;42.676;23.352;2022-08-20T13:38:06;23.75;;;10.48;;
56830;SDS011;42713;42.676;23.352;2022-08-20T13:40:31;23.40;;;10.27;;
56830;SDS011;42713;42.676;23.352;2022-08-20T13:42:57;27.67;;;12.07;;
56830;SDS011;42713;42.676;23.352;2022-08-20T13:45:23;20.88;;;11.95;;
56830;SDS011;42713;42.676;23.352;2022-08-20T13:47:50;24.75;;;11.88;;
56830;SDS011;42713;42.676;23.352;2022-08-20T13:50:18;19.70;;;10.98;;
56830;SDS011;42713;42.676;23.352;2022-08-20T13:52:45;19.60;;;11.25;;
56830;SDS011;42713;42.676;23.352;2022-08-20T13:55:13;20.02;;;10.93;;
56830;SDS011;42713;42.676;23.352;2022-08-20T13:57:41;21.15;;;11.15;;
56830;SDS011;42713;42.676;23.352;2022-08-20T14:00:08;22.90;;;11.35;;
56830;SDS011;42713;42.676;23.352;2022-08-20T14:02:38;18.45;;;10.40;;
56830;SDS011;42713;42.676;23.352;2022-08-20T14:05:04;19.80;;;10.10;;
56830;SDS011;42713;42.676;23.352;2022-08-20T14:07:30;14.85;;;8.57;;
56830;SDS011;42713;42.676;23.352;2022-08-20T14:09:56;19.08;;;9.95;;
56830;SDS011;42713;42.676;23.352;2022-08-20T14:12:29;19.50;;;10.65;;
56830;SDS011;42713;42.676;23.352;2022-08-20T14:14:54;24.17;;;11.43;;
56830;SDS011;42713;42.676;23.352;2022-08-20T14:17:22;18.48;;;11.18;;
56830;SDS011;42713;42.676;23.352;2022-08-20T14:19:50;25.27;;;12.32;;
56830;SDS011;42713;42.676;23.352;2022-08-20T14:22:17;17.05;;;11.98;;
56830;SDS011;42713;42.676;23.352;2022-08-20T14:24:46;16.17;;;10.98;;
56830;SDS011;42713;42.676;23.352;2022-08-20T14:27:13;18.27;;;11.00;;
56830;SDS011;42713;42.676;23.352;2022-08-20T14:29:43;22.63;;;12.48;;
56830;SDS011;42713;42.676;23.352;2022-08-20T14:32:10;18.63;;;12.68;;
56830;SDS011;42713;42.676;23.352;2022-08-20T14:34:36;18.02;;;13.23;;
56830;SDS011;42713;42.676;23.352;2022-08-20T14:37:13;21.48;;;12.60;;
56830;SDS011;42713;42.676;23.352;2022-08-20T14:39:39;22.77;;;12.43;;
56830;SDS011;42713;42.676;23.352;2022-08-20T14:42:05;20.10;;;12.20;;